sensor_id;sensor_type;location;lat;lon;timestamp;temperature;humidity
25320;DHT22;13256;49.012;8.610;2024-01-15T00:00:51;-1.40;99.90
25320;DHT22;13256;49.012;8.610;2024-01-15T00:03:24;-1.40;99.90
25320;DHT22;13256;49.012;8.610;2024-01-15T00:05:51;-1.40;99.90
25320;DHT22;13256;49.012;8.610;2024-01-15T00:08:18;-1.40;99.90
25320;DHT22;13256;49.012;8.610;2024-01-15T00:10:49;-1.40;99.90
25320;DHT22;13256;49.012;8.610;2024-01-15T00:13:17;-1.30;99.90
25320;DHT22;13256;49.012;8.610;2024-01-15T00:15:46;-1.40;99.90
25320;DHT22;13256;49.012;8.610;2024-01-15T00:18:17;-1.30;99.90
25320;DHT22;13256;49.012;8.610;2024-01-15T00:20:45;-1.30;99.90
25320;DHT22;13256;49.012;8.610;2024-01-15T00:23:19;-1.30;99.90
25320;DHT22;13256;49.012;8.610;2024-01-15T00:25:51;-1.30;99.90
25320;DHT22;13256;49.012;8.610;2024-01-15T00:28:18;-1.30;99.90
25320;DHT22;13256;49.012;8.610;2024-01-15T00:30:49;-1.30;99.90
25320;DHT22;13256;49.012;8.610;2024-01-15T00:33:20;-1.30;99.90
25320;DHT22;13256;49.012;8.610;2024-01-15T00:35:46;-1.30;99.90
25320;DHT22;13256;49.012;8.610;2024-01-15T00:38:16;-1.30;99.90
25320;DHT22;13256;49.012;8.610;2024-01-15T00:40:43;-1.30;99.90
25320;DHT22;13256;49.012;8.610;2024-01-15T00:43:10;-1.30;99.90
25320;DHT22;13256;49.012;8.610;2024-01-15T00:45:37;-1.30;99.90
25320;DHT22;13256;49.012;8.610;2024-01-15T00:48:16;-1.30;99.90
25320;DHT22;13256;49.012;8.610;2024-01-15T00:51:10;-1.30;99.90
25320;DHT22;13256;49.012;8.610;2024-01-15T00:53:37;-1.30;99.90
25320;DHT22;13256;49.012;8.610;2024-01-15T00:56:07;-1.30;99.90
25320;DHT22;13256;49.012;8.610;2024-01-15T00:58:34;-1.30;99.90
25320;DHT22;13256;49.012;8.610;2024-01-15T01:01:01;-1.30;99.90
25320;DHT22;13256;49.012;8.610;2024-01-15T01:03:31;-1.30;99.90
25320;DHT22;13256;49.012;8.610;2024-01-15T01:06:00;-1.30;99.90
25320;DHT22;13256;49.012;8.610;2024-01-15T01:08:27;-1.30;99.90
25320;DHT22;13256;49.012;8.610;2024-01-15T01:10:57;-1.20;99.90
25320;DHT22;13256;49.012;8.610;2024-01-15T01:13:28;-1.30;99.90
25320;DHT22;13256;49.012;8.610;2024-01-15T01:15:57;-1.20;99.90
25320;DHT22;13256;49.012;8.610;2024-01-15T01:18:52;-1.20;99.90
25320;DHT22;13256;49.012;8.610;2024-01-15T01:21:20;-1.20;99.90
25320;DHT22;13256;49.012;8.610;2024-01-15T01:23:48;-1.20;99.90
25320;DHT22;13256;49.012;8.610;2024-01-15T01:26:16;-1.20;99.90
25320;DHT22;13256;49.012;8.610;2024-01-15T01:28:46;-1.20;99.90
25320;DHT22;13256;49.012;8.610;2024-01-15T01:31:13;-1.20;99.90
25320;DHT22;13256;49.012;8.610;2024-01-15T01:33:40;-1.10;99.90
25320;DHT22;13256;49.012;8.610;2024-01-15T01:36:10;-1.10;99.90
25320;DHT22;13256;49.012;8.610;2024-01-15T01:38:45;-1.20;99.90
25320;DHT22;13256;49.012;8.610;2024-01-15T01:41:43;-1.20;99.90
25320;DHT22;13256;49.012;8.610;2024-01-15T01:44:13;-1.20;99.90
25320;DHT22;13256;49.012;8.610;2024-01-15T01:46:42;-1.20;99.90
25320;DHT22;13256;49.012;8.610;2024-01-15T01:49:09;-1.20;99.90
25320;DHT22;13256;49.012;8.610;2024-01-15T01:51:37;-1.20;99.90
25320;DHT22;13256;49.012;8.610;2024-01-15T01:54:08;-1.20;99.90
25320;DHT22;13256;49.012;8.610;2024-01-15T01:56:41;-1.10;99.90
25320;DHT22;13256;49.012;8.610;2024-01-15T01:59:11;-1.20;99.90
25320;DHT22;13256;49.012;8.610;2024-01-15T02:01:39;-1.10;99.90
25320;DHT22;13256;49.012;8.610;2024-01-15T02:04:11;-1.10;99.90
25320;DHT22;13256;49.012;8.610;2024-01-15T02:06:39;-1.10;99.90
25320;DHT22;13256;49.012;8.610;2024-01-15T02:09:09;-1.10;99.90
25320;DHT22;13256;49.012;8.610;2024-01-15T02:11:36;-1.00;99.90
25320;DHT22;13256;49.012;8.610;2024-01-15T02:14:09;-1.00;99.90
25320;DHT22;13256;49.012;8.610;2024-01-15T02:16:36;-1.00;99.90
25320;DHT22;13256;49.012;8.610;2024-01-15T02:19:04;-1.00;99.90
25320;DHT22;13256;49.012;8.610;2024-01-15T02:21:33;-1.10;99.90
25320;DHT22;13256;49.012;8.610;2024-01-15T02:24:03;-1.10;99.90
25320;DHT22;13256;49.012;8.610;2024-01-15T02:26:31;-1.00;99.90
25320;DHT22;13256;49.012;8.610;2024-01-15T02:29:03;-1.00;99.90
25320;DHT22;13256;49.012;8.610;2024-01-15T02:31:32;-1.00;99.90
25320;DHT22;13256;49.012;8.610;2024-01-15T02:34:06;-1.00;99.90
25320;DHT22;13256;49.012;8.610;2024-01-15T02:36:33;-1.00;99.90
25320;DHT22;13256;49.012;8.610;2024-01-15T02:39:28;-1.00;99.90
25320;DHT22;13256;49.012;8.610;2024-01-15T02:41:55;-1.00;99.90
25320;DHT22;13256;49.012;8.610;2024-01-15T02:44:24;-1.00;99.90
25320;DHT22;13256;49.012;8.610;2024-01-15T02:46:53;-1.00;99.90
25320;DHT22;13256;49.012;8.610;2024-01-15T02:49:45;-1.00;99.90
25320;DHT22;13256;49.012;8.610;2024-01-15T02:52:16;-0.90;99.90
25320;DHT22;13256;49.012;8.610;2024-01-15T02:54:46;-1.00;99.90
25320;DHT22;13256;49.012;8.610;2024-01-15T02:57:16;-1.00;99.90
25320;DHT22;13256;49.012;8.610;2024-01-15T02:59:43;-1.00;99.90
25320;DHT22;13256;49.012;8.610;2024-01-15T03:02:13;-1.00;99.90
25320;DHT22;13256;49.012;8.610;2024-01-15T03:04:46;-1.00;99.90
25320;DHT22;13256;49.012;8.610;2024-01-15T03:07:13;-1.00;99.90
25320;DHT22;13256;49.012;8.610;2024-01-15T03:09:40;-0.90;99.90
25320;DHT22;13256;49.012;8.610;2024-01-15T03:12:09;-0.90;99.90
25320;DHT22;13256;49.012;8.610;2024-01-15T03:14:40;-1.00;99.90
25320;DHT22;13256;49.012;8.610;2024-01-15T03:17:09;-1.00;99.90
25320;DHT22;13256;49.012;8.610;2024-01-15T03:19:36;-1.00;99.90
25320;DHT22;13256;49.012;8.610;2024-01-15T03:22:03;-0.90;99.90
25320;DHT22;13256;49.012;8.610;2024-01-15T03:24:42;-0.90;99.90
25320;DHT22;13256;49.012;8.610;2024-01-15T03:27:11;-1.00;99.90
25320;DHT22;13256;49.012;8.610;2024-01-15T03:29:40;-0.90;99.90
25320;DHT22;13256;49.012;8.610;2024-01-15T03:32:07;-0.90;99.90
25320;DHT22;13256;49.012;8.610;2024-01-15T03:34:33;-0.90;99.90
25320;DHT22;13256;49.012;8.610;2024-01-15T03:37:18;-1.00;99.90
25320;DHT22;13256;49.012;8.610;2024-01-15T03:39:49;-0.90;99.90
25320;DHT22;13256;49.012;8.610;2024-01-15T03:42:16;-0.90;99.90
25320;DHT22;13256;49.012;8.610;2024-01-15T03:44:47;-0.90;99.90
25320;DHT22;13256;49.012;8.610;2024-01-15T03:47:13;-0.90;99.90
25320;DHT22;13256;49.012;8.610;2024-01-15T03:49:42;-0.90;99.90
25320;DHT22;13256;49.012;8.610;2024-01-15T03:55:47;-0.90;99.90
25320;DHT22;13256;49.012;8.610;2024-01-15T03:58:14;-0.80;99.90
25320;DHT22;13256;49.012;8.610;2024-01-15T04:00:42;-0.90;99.90
25320;DHT22;13256;49.012;8.610;2024-01-15T04:03:11;-0.80;99.90
25320;DHT22;13256;49.012;8.610;2024-01-15T04:05:38;-0.80;99.90
25320;DHT22;13256;49.012;8.610;2024-01-15T04:08:08;-0.80;99.90
25320;DHT22;13256;49.012;8.610;2024-01-15T04:10:38;-0.80;99.90
25320;DHT22;13256;49.012;8.610;2024-01-15T04:13:09;-0.80;99.90
25320;DHT22;13256;49.012;8.610;2024-01-15T04:15:35;-0.80;99.90
25320;DHT22;13256;49.012;8.610;2024-01-15T04:18:06;-0.80;99.90
25320;DHT22;13256;49.012;8.610;2024-01-15T04:20:36;-0.80;99.90
25320;DHT22;13256;49.012;8.610;2024-01-15T04:23:04;-0.80;99.90
25320;DHT22;13256;49.012;8.610;2024-01-15T04:25:31;-0.80;99.90
25320;DHT22;13256;49.012;8.610;2024-01-15T04:27:57;-0.80;99.90
25320;DHT22;13256;49.012;8.610;2024-01-15T04:30:24;-0.80;99.90
25320;DHT22;13256;49.012;8.610;2024-01-15T04:32:59;-0.80;99.90
25320;DHT22;13256;49.012;8.610;2024-01-15T04:35:26;-0.80;99.90
25320;DHT22;13256;49.012;8.610;2024-01-15T04:37:53;-0.70;99.90
25320;DHT22;13256;49.012;8.610;2024-01-15T04:40:20;-0.70;99.90
25320;DHT22;13256;49.012;8.610;2024-01-15T04:42:47;-0.70;99.90
25320;DHT22;13256;49.012;8.610;2024-01-15T04:45:14;-0.70;99.90
25320;DHT22;13256;49.012;8.610;2024-01-15T04:47:48;-0.70;99.90
25320;DHT22;13256;49.012;8.610;2024-01-15T04:50:31;-0.70;99.90
25320;DHT22;13256;49.012;8.610;2024-01-15T04:53:00;-0.60;99.90
25320;DHT22;13256;49.012;8.610;2024-01-15T04:55:30;-0.60;99.90
25320;DHT22;13256;49.012;8.610;2024-01-15T04:58:06;-0.60;99.90
25320;DHT22;13256;49.012;8.610;2024-01-15T05:00:33;-0.60;99.90
25320;DHT22;13256;49.012;8.610;2024-01-15T05:03:05;-0.60;99.90
25320;DHT22;13256;49.012;8.610;2024-01-15T05:05:34;-0.60;99.90
25320;DHT22;13256;49.012;8.610;2024-01-15T05:08:04;-0.50;99.90
25320;DHT22;13256;49.012;8.610;2024-01-15T05:10:31;-0.50;99.90
25320;DHT22;13256;49.012;8.610;2024-01-15T05:13:05;-0.50;99.90
25320;DHT22;13256;49.012;8.610;2024-01-15T05:16:00;-0.50;99.90
25320;DHT22;13256;49.012;8.610;2024-01-15T05:18:27;-0.50;99.90
25320;DHT22;13256;49.012;8.610;2024-01-15T05:20:54;-0.50;99.90
25320;DHT22;13256;49.012;8.610;2024-01-15T05:23:27;-0.50;99.90
25320;DHT22;13256;49.012;8.610;2024-01-15T05:25:54;-0.50;99.90
25320;DHT22;13256;49.012;8.610;2024-01-15T05:28:21;-0.50;99.90
25320;DHT22;13256;49.012;8.610;2024-01-15T05:30:54;-0.50;99.90
25320;DHT22;13256;49.012;8.610;2024-01-15T05:33:25;-0.50;99.90
25320;DHT22;13256;49.012;8.610;2024-01-15T05:35:52;-0.50;99.90
25320;DHT22;13256;49.012;8.610;2024-01-15T05:38:22;-0.40;99.90
25320;DHT22;13256;49.012;8.610;2024-01-15T05:40:49;-0.50;99.90
25320;DHT22;13256;49.012;8.610;2024-01-15T05:43:16;-0.50;99.90
25320;DHT22;13256;49.012;8.610;2024-01-15T05:45:43;-0.50;99.90
25320;DHT22;13256;49.012;8.610;2024-01-15T05:48:12;-0.50;99.90
25320;DHT22;13256;49.012;8.610;2024-01-15T05:50:42;-0.40;99.90
25320;DHT22;13256;49.012;8.610;2024-01-15T05:53:11;-0.50;99.90
25320;DHT22;13256;49.012;8.610;2024-01-15T05:55:45;-0.50;99.90
25320;DHT22;13256;49.012;8.610;2024-01-15T05:58:17;-0.50;99.90
25320;DHT22;13256;49.012;8.610;2024-01-15T06:00:44;-0.40;99.90
25320;DHT22;13256;49.012;8.610;2024-01-15T06:03:34;-0.50;99.90
25320;DHT22;13256;49.012;8.610;2024-01-15T06:06:03;-0.50;99.90
25320;DHT22;13256;49.012;8.610;2024-01-15T06:08:30;-0.40;99.90
25320;DHT22;13256;49.012;8.610;2024-01-15T06:10:56;-0.40;99.90
25320;DHT22;13256;49.012;8.610;2024-01-15T06:13:30;-0.40;99.90
25320;DHT22;13256;49.012;8.610;2024-01-15T06:15:59;-0.50;99.90
25320;DHT22;13256;49.012;8.610;2024-01-15T06:18:43;-0.40;99.90
25320;DHT22;13256;49.012;8.610;2024-01-15T06:21:10;-0.50;99.90
25320;DHT22;13256;49.012;8.610;2024-01-15T06:23:39;-0.40;99.90
25320;DHT22;13256;49.012;8.610;2024-01-15T06:26:08;-0.40;99.90
25320;DHT22;13256;49.012;8.610;2024-01-15T06:28:38;-0.40;99.90
25320;DHT22;13256;49.012;8.610;2024-01-15T06:31:06;-0.40;99.90
25320;DHT22;13256;49.012;8.610;2024-01-15T06:33:37;-0.40;99.90
25320;DHT22;13256;49.012;8.610;2024-01-15T06:36:07;-0.40;99.90
25320;DHT22;13256;49.012;8.610;2024-01-15T06:38:37;-0.40;99.90
25320;DHT22;13256;49.012;8.610;2024-01-15T06:41:04;-0.40;99.90
25320;DHT22;13256;49.012;8.610;2024-01-15T06:43:30;-0.40;99.90
25320;DHT22;13256;49.012;8.610;2024-01-15T06:46:00;-0.40;99.90
25320;DHT22;13256;49.012;8.610;2024-01-15T06:48:33;-0.30;99.90
25320;DHT22;13256;49.012;8.610;2024-01-15T06:51:03;-0.30;99.90
25320;DHT22;13256;49.012;8.610;2024-01-15T06:53:32;-0.30;99.90
25320;DHT22;13256;49.012;8.610;2024-01-15T06:56:09;-0.30;99.90
25320;DHT22;13256;49.012;8.610;2024-01-15T06:58:38;-0.30;99.90
25320;DHT22;13256;49.012;8.610;2024-01-15T07:01:09;-0.30;99.90
25320;DHT22;13256;49.012;8.610;2024-01-15T07:03:37;-0.40;99.90
25320;DHT22;13256;49.012;8.610;2024-01-15T07:06:12;-0.40;99.90
25320;DHT22;13256;49.012;8.610;2024-01-15T07:08:43;-0.30;99.90
25320;DHT22;13256;49.012;8.610;2024-01-15T07:11:34;-0.40;99.90
25320;DHT22;13256;49.012;8.610;2024-01-15T07:14:25;-0.40;99.90
25320;DHT22;13256;49.012;8.610;2024-01-15T07:16:54;-0.40;99.90
25320;DHT22;13256;49.012;8.610;2024-01-15T07:19:21;-0.40;99.90
25320;DHT22;13256;49.012;8.610;2024-01-15T07:21:48;-0.40;99.90
25320;DHT22;13256;49.012;8.610;2024-01-15T07:24:22;-0.40;99.90
25320;DHT22;13256;49.012;8.610;2024-01-15T07:26:51;-0.40;99.90
25320;DHT22;13256;49.012;8.610;2024-01-15T07:29:21;-0.40;99.90
25320;DHT22;13256;49.012;8.610;2024-01-15T07:31:51;-0.40;99.90
25320;DHT22;13256;49.012;8.610;2024-01-15T07:34:19;-0.40;99.90
25320;DHT22;13256;49.012;8.610;2024-01-15T07:36:46;-0.40;99.90
25320;DHT22;13256;49.012;8.610;2024-01-15T07:39:17;-0.40;99.90
25320;DHT22;13256;49.012;8.610;2024-01-15T07:41:44;-0.30;99.90
25320;DHT22;13256;49.012;8.610;2024-01-15T07:44:14;-0.30;99.90
25320;DHT22;13256;49.012;8.610;2024-01-15T07:46:45;-0.30;99.90
25320;DHT22;13256;49.012;8.610;2024-01-15T07:49:13;-0.30;99.90
25320;DHT22;13256;49.012;8.610;2024-01-15T07:51:43;-0.20;99.90
25320;DHT22;13256;49.012;8.610;2024-01-15T07:54:14;-0.30;99.90
25320;DHT22;13256;49.012;8.610;2024-01-15T07:59:21;-0.20;99.90
25320;DHT22;13256;49.012;8.610;2024-01-15T08:01:51;-0.20;99.90
25320;DHT22;13256;49.012;8.610;2024-01-15T08:04:24;-0.20;99.90
25320;DHT22;13256;49.012;8.610;2024-01-15T08:10:13;-0.20;99.90
25320;DHT22;13256;49.012;8.610;2024-01-15T08:12:40;-0.10;99.90
25320;DHT22;13256;49.012;8.610;2024-01-15T08:15:07;-0.10;99.90
25320;DHT22;13256;49.012;8.610;2024-01-15T08:17:34;-0.10;99.90
25320;DHT22;13256;49.012;8.610;2024-01-15T08:20:01;-0.10;99.90
25320;DHT22;13256;49.012;8.610;2024-01-15T08:22:36;0.00;99.90
25320;DHT22;13256;49.012;8.610;2024-01-15T08:25:03;0.00;99.90
25320;DHT22;13256;49.012;8.610;2024-01-15T08:27:30;0.00;99.90
25320;DHT22;13256;49.012;8.610;2024-01-15T08:30:01;0.10;99.90
25320;DHT22;13256;49.012;8.610;2024-01-15T08:32:27;0.10;99.90
25320;DHT22;13256;49.012;8.610;2024-01-15T08:34:57;0.10;99.90
25320;DHT22;13256;49.012;8.610;2024-01-15T08:37:27;0.10;99.90
25320;DHT22;13256;49.012;8.610;2024-01-15T08:39:54;0.10;99.90
25320;DHT22;13256;49.012;8.610;2024-01-15T08:42:21;0.10;99.90
25320;DHT22;13256;49.012;8.610;2024-01-15T08:44:48;0.10;99.90
25320;DHT22;13256;49.012;8.610;2024-01-15T08:47:22;0.10;99.90
25320;DHT22;13256;49.012;8.610;2024-01-15T08:49:52;0.20;99.90
25320;DHT22;13256;49.012;8.610;2024-01-15T08:52:24;0.20;99.90
25320;DHT22;13256;49.012;8.610;2024-01-15T08:54:50;0.20;99.90
25320;DHT22;13256;49.012;8.610;2024-01-15T08:57:26;0.20;99.90
25320;DHT22;13256;49.012;8.610;2024-01-15T08:59:56;0.20;99.90
25320;DHT22;13256;49.012;8.610;2024-01-15T09:02:34;0.30;99.90
25320;DHT22;13256;49.012;8.610;2024-01-15T09:05:01;0.30;99.90
25320;DHT22;13256;49.012;8.610;2024-01-15T09:07:33;0.30;99.90
25320;DHT22;13256;49.012;8.610;2024-01-15T09:10:01;0.30;99.90
25320;DHT22;13256;49.012;8.610;2024-01-15T09:12:28;0.30;99.90
25320;DHT22;13256;49.012;8.610;2024-01-15T09:14:56;0.30;99.90
25320;DHT22;13256;49.012;8.610;2024-01-15T09:17:26;0.40;99.90
25320;DHT22;13256;49.012;8.610;2024-01-15T09:19:54;0.40;99.90
25320;DHT22;13256;49.012;8.610;2024-01-15T09:22:27;0.50;99.90
25320;DHT22;13256;49.012;8.610;2024-01-15T09:24:54;0.50;99.90
25320;DHT22;13256;49.012;8.610;2024-01-15T09:27:27;0.50;99.90
25320;DHT22;13256;49.012;8.610;2024-01-15T09:29:54;0.50;99.90
25320;DHT22;13256;49.012;8.610;2024-01-15T09:32:21;0.50;99.90
25320;DHT22;13256;49.012;8.610;2024-01-15T09:34:52;0.60;99.90
25320;DHT22;13256;49.012;8.610;2024-01-15T09:37:19;0.60;99.90
25320;DHT22;13256;49.012;8.610;2024-01-15T09:40:08;0.60;99.90
25320;DHT22;13256;49.012;8.610;2024-01-15T09:42:40;0.60;99.90
25320;DHT22;13256;49.012;8.610;2024-01-15T09:45:08;0.60;99.90
25320;DHT22;13256;49.012;8.610;2024-01-15T09:47:40;0.60;99.90
25320;DHT22;13256;49.012;8.610;2024-01-15T09:50:14;0.70;99.90
25320;DHT22;13256;49.012;8.610;2024-01-15T09:52:45;0.70;99.90
25320;DHT22;13256;49.012;8.610;2024-01-15T09:55:17;0.70;99.90
25320;DHT22;13256;49.012;8.610;2024-01-15T09:57:45;0.70;99.90
25320;DHT22;13256;49.012;8.610;2024-01-15T10:00:17;0.70;99.90
25320;DHT22;13256;49.012;8.610;2024-01-15T10:02:44;0.70;99.90
25320;DHT22;13256;49.012;8.610;2024-01-15T10:05:14;0.70;99.90
25320;DHT22;13256;49.012;8.610;2024-01-15T10:07:42;0.70;99.90
25320;DHT22;13256;49.012;8.610;2024-01-15T10:10:11;0.70;99.90
25320;DHT22;13256;49.012;8.610;2024-01-15T10:12:39;0.80;99.90
25320;DHT22;13256;49.012;8.610;2024-01-15T10:15:09;0.80;99.90
25320;DHT22;13256;49.012;8.610;2024-01-15T10:17:39;0.80;99.90
25320;DHT22;13256;49.012;8.610;2024-01-15T10:20:10;0.80;99.90
25320;DHT22;13256;49.012;8.610;2024-01-15T10:22:41;0.80;99.90
25320;DHT22;13256;49.012;8.610;2024-01-15T10:25:11;0.80;99.90
25320;DHT22;13256;49.012;8.610;2024-01-15T10:27:40;0.70;99.90
25320;DHT22;13256;49.012;8.610;2024-01-15T10:30:09;0.80;99.90
25320;DHT22;13256;49.012;8.610;2024-01-15T10:32:36;0.70;99.90
25320;DHT22;13256;49.012;8.610;2024-01-15T10:35:07;0.70;99.90
25320;DHT22;13256;49.012;8.610;2024-01-15T10:37:37;0.70;99.90
25320;DHT22;13256;49.012;8.610;2024-01-15T10:40:05;0.70;99.90
25320;DHT22;13256;49.012;8.610;2024-01-15T10:42:38;0.70;99.90
25320;DHT22;13256;49.012;8.610;2024-01-15T10:45:08;0.70;99.90
25320;DHT22;13256;49.012;8.610;2024-01-15T10:47:35;0.60;99.90
25320;DHT22;13256;49.012;8.610;2024-01-15T10:50:32;0.70;99.90
25320;DHT22;13256;49.012;8.610;2024-01-15T10:53:13;0.60;99.90
25320;DHT22;13256;49.012;8.610;2024-01-15T10:55:42;0.70;99.90
25320;DHT22;13256;49.012;8.610;2024-01-15T10:58:10;0.70;99.90
25320;DHT22;13256;49.012;8.610;2024-01-15T11:00:39;0.80;99.90
25320;DHT22;13256;49.012;8.610;2024-01-15T11:03:06;0.80;99.90
25320;DHT22;13256;49.012;8.610;2024-01-15T11:05:43;0.80;99.90
25320;DHT22;13256;49.012;8.610;2024-01-15T11:08:10;0.90;99.90
25320;DHT22;13256;49.012;8.610;2024-01-15T11:13:40;0.90;99.90
25320;DHT22;13256;49.012;8.610;2024-01-15T11:16:03;0.90;99.90
25320;DHT22;13256;49.012;8.610;2024-01-15T11:18:34;0.90;99.90
25320;DHT22;13256;49.012;8.610;2024-01-15T11:21:31;0.90;99.90
25320;DHT22;13256;49.012;8.610;2024-01-15T11:24:00;0.90;99.90
25320;DHT22;13256;49.012;8.610;2024-01-15T11:26:38;0.90;99.90
25320;DHT22;13256;49.012;8.610;2024-01-15T11:29:29;0.90;99.90
25320;DHT22;13256;49.012;8.610;2024-01-15T11:32:03;0.90;99.90
25320;DHT22;13256;49.012;8.610;2024-01-15T11:34:55;1.00;99.90
25320;DHT22;13256;49.012;8.610;2024-01-15T11:43:05;1.00;99.90
25320;DHT22;13256;49.012;8.610;2024-01-15T11:45:35;1.00;99.90
25320;DHT22;13256;49.012;8.610;2024-01-15T11:48:13;1.00;99.90
25320;DHT22;13256;49.012;8.610;2024-01-15T11:50:49;0.90;99.90
25320;DHT22;13256;49.012;8.610;2024-01-15T11:55:51;1.00;99.90
25320;DHT22;13256;49.012;8.610;2024-01-15T11:58:19;1.00;99.90
25320;DHT22;13256;49.012;8.610;2024-01-15T12:00:48;1.00;99.90
25320;DHT22;13256;49.012;8.610;2024-01-15T12:03:17;1.00;99.90
25320;DHT22;13256;49.012;8.610;2024-01-15T12:05:52;1.00;99.90
25320;DHT22;13256;49.012;8.610;2024-01-15T12:08:21;1.00;99.90
25320;DHT22;13256;49.012;8.610;2024-01-15T12:10:49;1.00;99.90
25320;DHT22;13256;49.012;8.610;2024-01-15T12:13:17;1.00;99.90
25320;DHT22;13256;49.012;8.610;2024-01-15T12:15:48;1.00;99.90
25320;DHT22;13256;49.012;8.610;2024-01-15T12:18:18;1.00;99.90
25320;DHT22;13256;49.012;8.610;2024-01-15T12:20:50;1.00;99.90
25320;DHT22;13256;49.012;8.610;2024-01-15T12:23:21;1.00;99.90
25320;DHT22;13256;49.012;8.610;2024-01-15T12:25:49;1.10;99.90
25320;DHT22;13256;49.012;8.610;2024-01-15T12:28:17;1.10;99.90
25320;DHT22;13256;49.012;8.610;2024-01-15T12:34:17;1.20;99.90
25320;DHT22;13256;49.012;8.610;2024-01-15T12:36:46;1.30;99.90
25320;DHT22;13256;49.012;8.610;2024-01-15T12:39:13;1.30;99.90
25320;DHT22;13256;49.012;8.610;2024-01-15T12:41:44;1.30;99.90
25320;DHT22;13256;49.012;8.610;2024-01-15T12:44:16;1.30;99.90
25320;DHT22;13256;49.012;8.610;2024-01-15T12:46:43;1.40;99.90
25320;DHT22;13256;49.012;8.610;2024-01-15T12:49:10;1.40;99.90
25320;DHT22;13256;49.012;8.610;2024-01-15T12:51:39;1.40;99.90
25320;DHT22;13256;49.012;8.610;2024-01-15T12:54:06;1.40;99.90
25320;DHT22;13256;49.012;8.610;2024-01-15T12:56:35;1.40;99.90
25320;DHT22;13256;49.012;8.610;2024-01-15T12:59:02;1.40;99.90
25320;DHT22;13256;49.012;8.610;2024-01-15T13:01:30;1.40;99.90
25320;DHT22;13256;49.012;8.610;2024-01-15T13:03:57;1.40;99.90
25320;DHT22;13256;49.012;8.610;2024-01-15T13:06:25;1.40;99.90
25320;DHT22;13256;49.012;8.610;2024-01-15T13:08:52;1.50;99.90
25320;DHT22;13256;49.012;8.610;2024-01-15T13:11:21;1.50;99.90
25320;DHT22;13256;49.012;8.610;2024-01-15T13:16:52;1.60;99.90
25320;DHT22;13256;49.012;8.610;2024-01-15T13:19:24;1.60;99.90
25320;DHT22;13256;49.012;8.610;2024-01-15T13:21:51;1.60;99.90
25320;DHT22;13256;49.012;8.610;2024-01-15T13:24:20;1.70;99.90
25320;DHT22;13256;49.012;8.610;2024-01-15T13:27:15;1.60;99.90
25320;DHT22;13256;49.012;8.610;2024-01-15T13:29:43;1.70;99.90
25320;DHT22;13256;49.012;8.610;2024-01-15T13:35:10;1.60;99.90
25320;DHT22;13256;49.012;8.610;2024-01-15T13:37:39;1.70;99.90
25320;DHT22;13256;49.012;8.610;2024-01-15T13:40:08;1.70;99.90
25320;DHT22;13256;49.012;8.610;2024-01-15T13:42:36;1.70;99.90
25320;DHT22;13256;49.012;8.610;2024-01-15T13:45:08;1.70;99.90
25320;DHT22;13256;49.012;8.610;2024-01-15T13:47:37;1.60;99.90
25320;DHT22;13256;49.012;8.610;2024-01-15T13:50:06;1.70;99.90
25320;DHT22;13256;49.012;8.610;2024-01-15T13:52:33;1.70;99.90
25320;DHT22;13256;49.012;8.610;2024-01-15T13:55:02;1.70;99.90
25320;DHT22;13256;49.012;8.610;2024-01-15T13:57:29;1.70;99.90
25320;DHT22;13256;49.012;8.610;2024-01-15T13:59:56;1.70;99.90
25320;DHT22;13256;49.012;8.610;2024-01-15T14:02:24;1.60;99.90
25320;DHT22;13256;49.012;8.610;2024-01-15T14:04:52;1.60;99.90
25320;DHT22;13256;49.012;8.610;2024-01-15T14:07:19;1.60;99.90
25320;DHT22;13256;49.012;8.610;2024-01-15T14:09:46;1.60;99.90
25320;DHT22;13256;49.012;8.610;2024-01-15T14:12:18;1.60;99.90
25320;DHT22;13256;49.012;8.610;2024-01-15T14:14:47;1.60;99.90
25320;DHT22;13256;49.012;8.610;2024-01-15T14:17:16;1.60;99.90
25320;DHT22;13256;49.012;8.610;2024-01-15T14:19:45;1.60;99.90
25320;DHT22;13256;49.012;8.610;2024-01-15T14:22:18;1.50;99.90
25320;DHT22;13256;49.012;8.610;2024-01-15T14:24:47;1.60;99.90
25320;DHT22;13256;49.012;8.610;2024-01-15T14:27:16;1.60;99.90
25320;DHT22;13256;49.012;8.610;2024-01-15T14:29:44;1.60;99.90
25320;DHT22;13256;49.012;8.610;2024-01-15T14:32:18;1.70;99.90
25320;DHT22;13256;49.012;8.610;2024-01-15T14:34:45;1.70;99.90
25320;DHT22;13256;49.012;8.610;2024-01-15T14:37:12;1.80;99.90
25320;DHT22;13256;49.012;8.610;2024-01-15T14:39:42;1.80;99.90
25320;DHT22;13256;49.012;8.610;2024-01-15T14:42:09;1.80;99.90
25320;DHT22;13256;49.012;8.610;2024-01-15T14:44:37;1.90;99.90
25320;DHT22;13256;49.012;8.610;2024-01-15T14:47:07;1.90;99.90
25320;DHT22;13256;49.012;8.610;2024-01-15T14:49:34;2.00;99.90
25320;DHT22;13256;49.012;8.610;2024-01-15T14:52:02;1.90;99.90
25320;DHT22;13256;49.012;8.610;2024-01-15T14:57:27;1.80;99.90
25320;DHT22;13256;49.012;8.610;2024-01-15T14:59:54;1.70;99.90
25320;DHT22;13256;49.012;8.610;2024-01-15T15:02:22;1.70;99.90
25320;DHT22;13256;49.012;8.610;2024-01-15T15:04:51;1.60;99.90
25320;DHT22;13256;49.012;8.610;2024-01-15T15:07:19;1.60;99.90
25320;DHT22;13256;49.012;8.610;2024-01-15T15:09:46;1.50;99.90
25320;DHT22;13256;49.012;8.610;2024-01-15T15:12:12;1.50;99.90
25320;DHT22;13256;49.012;8.610;2024-01-15T15:14:44;1.50;99.90
25320;DHT22;13256;49.012;8.610;2024-01-15T15:17:26;1.50;99.90
25320;DHT22;13256;49.012;8.610;2024-01-15T15:19:53;1.40;99.90
25320;DHT22;13256;49.012;8.610;2024-01-15T15:22:43;1.40;99.90
25320;DHT22;13256;49.012;8.610;2024-01-15T15:25:38;1.40;99.90
25320;DHT22;13256;49.012;8.610;2024-01-15T15:28:15;1.40;99.90
25320;DHT22;13256;49.012;8.610;2024-01-15T15:30:50;1.30;99.90
25320;DHT22;13256;49.012;8.610;2024-01-15T15:33:17;1.30;99.90
25320;DHT22;13256;49.012;8.610;2024-01-15T15:35:48;1.30;99.90
25320;DHT22;13256;49.012;8.610;2024-01-15T15:38:19;1.40;99.90
25320;DHT22;13256;49.012;8.610;2024-01-15T15:40:51;1.30;99.90
25320;DHT22;13256;49.012;8.610;2024-01-15T15:43:20;1.30;99.90
25320;DHT22;13256;49.012;8.610;2024-01-15T15:45:53;1.30;99.90
25320;DHT22;13256;49.012;8.610;2024-01-15T15:48:30;1.30;99.90
25320;DHT22;13256;49.012;8.610;2024-01-15T15:50:57;1.20;99.90
25320;DHT22;13256;49.012;8.610;2024-01-15T15:53:30;1.20;99.90
25320;DHT22;13256;49.012;8.610;2024-01-15T15:56:00;1.20;99.90
25320;DHT22;13256;49.012;8.610;2024-01-15T15:58:28;1.20;99.90
25320;DHT22;13256;49.012;8.610;2024-01-15T16:00:58;1.20;99.90
25320;DHT22;13256;49.012;8.610;2024-01-15T16:03:28;1.20;99.90
25320;DHT22;13256;49.012;8.610;2024-01-15T16:05:57;1.20;99.90
25320;DHT22;13256;49.012;8.610;2024-01-15T16:08:24;1.20;99.90
25320;DHT22;13256;49.012;8.610;2024-01-15T16:10:51;1.20;99.90
25320;DHT22;13256;49.012;8.610;2024-01-15T16:13:23;1.20;99.90
25320;DHT22;13256;49.012;8.610;2024-01-15T16:15:50;1.20;99.90
25320;DHT22;13256;49.012;8.610;2024-01-15T16:18:40;1.20;99.90
25320;DHT22;13256;49.012;8.610;2024-01-15T16:21:27;1.20;99.90
25320;DHT22;13256;49.012;8.610;2024-01-15T16:24:14;1.20;99.90
25320;DHT22;13256;49.012;8.610;2024-01-15T16:26:55;1.20;99.90
25320;DHT22;13256;49.012;8.610;2024-01-15T16:29:23;1.20;99.90
25320;DHT22;13256;49.012;8.610;2024-01-15T16:31:50;1.10;99.90